Time;durP1;ratioP1;P1;durP2;ratioP2;P2;SDS_P1;SDS_P2;PMS_P1;PMS_P2;Temp;Humidity;BMP_temperature;BMP_pressure;BME280_temperature;BME280_humidity;BME280_pressure;Samples;Min_cycle;Max_cycle;Signal;HPM_P1;HPM_P2
2022/02/21 00:00:41;;;;;;;7.43;1.85;;;8.80;85.30;;;;;;5035219;28;20032;-66
2022/02/21 00:03:07;;;;;;;8.90;2.10;;;8.90;85.10;;;;;;5036169;28;20037;-68
2022/02/21 00:05:36;;;;;;;6.20;1.85;;;8.80;85.10;;;;;;5034386;28;20052;-68
2022/02/21 00:08:03;;;;;;;10.48;1.98;;;8.80;84.90;;;;;;5038407;28;20111;-67
2022/02/21 00:10:29;;;;;;;8.23;1.90;;;8.80;84.80;;;;;;5039707;28;20025;-67
2022/02/21 00:12:54;;;;;;;6.63;1.83;;;8.90;84.90;;;;;;5038116;28;20083;-67
2022/02/21 00:15:23;;;;;;;5.60;1.70;;;8.90;84.80;;;;;;5031757;28;20021;-67
2022/02/21 00:17:51;;;;;;;7.07;1.75;;;8.90;84.70;;;;;;5033349;28;20025;-67
2022/02/21 00:20:17;;;;;;;4.30;1.27;;;8.90;84.80;;;;;;5032873;28;20033;-66
2022/02/21 00:22:42;;;;;;;5.88;1.38;;;8.90;84.50;;;;;;5035162;28;20418;-66
2022/02/21 00:25:09;;;;;;;8.35;1.85;;;9.00;84.10;;;;;;5034473;28;20120;-67
2022/02/21 00:27:36;;;;;;;7.72;1.40;;;9.00;84.30;;;;;;5030532;28;20029;-67
2022/02/21 00:30:03;;;;;;;5.43;1.58;;;8.90;84.00;;;;;;5033764;28;20304;-67
2022/02/21 00:32:28;;;;;;;5.03;1.45;;;8.90;84.30;;;;;;5034096;28;20037;-67
2022/02/21 00:34:54;;;;;;;6.15;1.75;;;8.90;84.70;;;;;;5034496;28;20099;-66
2022/02/21 00:37:20;;;;;;;6.40;1.70;;;8.90;84.50;;;;;;5034801;28;20418;-67
2022/02/21 00:39:45;;;;;;;6.05;1.50;;;8.90;84.70;;;;;;5035755;28;20025;-66
2022/02/21 00:42:11;;;;;;;5.38;1.60;;;8.80;84.90;;;;;;5024178;28;20021;-66
2022/02/21 00:44:39;;;;;;;9.27;1.70;;;8.80;85.10;;;;;;5032551;28;20031;-66
2022/02/21 00:47:06;;;;;;;6.22;1.63;;;8.80;84.90;;;;;;5034111;28;20112;-67
2022/02/21 00:49:31;;;;;;;6.88;2.00;;;8.80;84.90;;;;;;5032221;28;20112;-66
2022/02/21 00:51:58;;;;;;;7.20;1.88;;;8.80;85.20;;;;;;5033204;28;20387;-67
2022/02/21 00:54:28;;;;;;;9.20;2.00;;;8.80;85.40;;;;;;5034997;28;20025;-67
2022/02/21 00:56:54;;;;;;;5.65;1.60;;;8.80;85.50;;;;;;5033346;28;20040;-67
2022/02/21 00:59:20;;;;;;;7.03;1.70;;;8.80;85.70;;;;;;5032976;28;20025;-67
2022/02/21 01:01:45;;;;;;;6.95;1.40;;;8.70;86.10;;;;;;5034049;28;20030;-67
2022/02/21 01:04:11;;;;;;;6.95;1.70;;;8.70;86.20;;;;;;5026516;28;20025;-66
2022/02/21 01:06:36;;;;;;;6.55;1.70;;;8.70;86.10;;;;;;5033778;28;20033;-67
2022/02/21 01:09:02;;;;;;;8.70;2.13;;;8.70;86.30;;;;;;5034503;28;20033;-66
2022/02/21 01:11:30;;;;;;;9.25;2.00;;;8.80;86.10;;;;;;5034241;28;20041;-66
2022/02/21 01:13:57;;;;;;;8.27;2.03;;;8.80;86.20;;;;;;5032644;28;20109;-66
2022/02/21 01:16:24;;;;;;;9.60;2.08;;;8.80;86.50;;;;;;5032856;28;20025;-66
2022/02/21 01:18:51;;;;;;;5.82;1.70;;;8.60;87.40;;;;;;5033770;28;20117;-68
2022/02/21 01:21:16;;;;;;;10.20;2.35;;;8.60;88.20;;;;;;5032043;28;20315;-67
2022/02/21 01:23:42;;;;;;;6.57;2.28;;;8.30;89.60;;;;;;5034284;28;20025;-66
2022/02/21 01:26:08;;;;;;;8.20;2.13;;;8.30;89.70;;;;;;5042729;28;20017;-66
2022/02/21 01:28:33;;;;;;;5.55;1.42;;;8.40;89.00;;;;;;5033771;28;20029;-66
2022/02/21 01:30:59;;;;;;;5.43;1.65;;;8.40;89.00;;;;;;5025568;28;20030;-66
2022/02/21 01:33:25;;;;;;;9.40;1.83;;;8.50;89.20;;;;;;5023565;28;20072;-66
2022/02/21 01:35:51;;;;;;;5.65;1.50;;;8.50;88.90;;;;;;5030897;28;20022;-67
2022/02/21 01:38:17;;;;;;;4.90;2.05;;;8.50;89.40;;;;;;5033951;28;20040;-66
2022/02/21 01:40:42;;;;;;;6.63;1.65;;;8.40;88.80;;;;;;5036841;28;20050;-67
2022/02/21 01:43:08;;;;;;;5.13;1.50;;;8.50;89.20;;;;;;5038111;28;20029;-67
2022/02/21 01:45:34;;;;;;;6.10;1.70;;;8.50;89.40;;;;;;5034957;28;20033;-67
2022/02/21 01:48:00;;;;;;;16.75;2.67;;;8.40;90.30;;;;;;5035363;28;20029;-66
2022/02/21 01:50:25;;;;;;;5.75;1.85;;;8.20;90.80;;;;;;5037135;28;20334;-67
2022/02/21 01:52:51;;;;;;;5.72;1.45;;;8.10;92.20;;;;;;5030067;28;20060;-67
2022/02/21 01:55:17;;;;;;;6.22;2.10;;;7.90;92.50;;;;;;5037546;28;20322;-66
2022/02/21 01:57:48;;;;;;;5.53;1.45;;;8.00;91.90;;;;;;5037325;28;21873;-66
2022/02/21 02:00:15;;;;;;;4.63;1.50;;;8.10;91.50;;;;;;5036843;28;20422;-66
2022/02/21 02:02:46;;;;;;;6.93;1.45;;;8.10;91.30;;;;;;5037834;28;20360;-66
2022/02/21 02:05:13;;;;;;;5.90;1.40;;;8.10;91.80;;;;;;5030814;28;20033;-66
2022/02/21 02:07:40;;;;;;;5.10;1.50;;;8.10;92.10;;;;;;5037140;28;20025;-67
2022/02/21 02:10:07;;;;;;;8.60;2.00;;;8.00;91.90;;;;;;5035900;28;20025;-66
2022/02/21 02:12:33;;;;;;;4.35;1.50;;;8.00;92.20;;;;;;5036239;28;20037;-66
2022/02/21 02:14:59;;;;;;;3.00;1.10;;;8.00;92.10;;;;;;5028996;28;20022;-66
2022/02/21 02:17:25;;;;;;;5.53;1.30;;;8.10;92.40;;;;;;5034651;28;20028;-68
2022/02/21 02:19:51;;;;;;;6.03;1.63;;;8.10;92.20;;;;;;5036829;28;20022;-66
2022/02/21 02:22:18;;;;;;;2.70;1.10;;;8.10;91.80;;;;;;5036702;28;20025;-66
2022/02/21 02:24:46;;;;;;;4.65;1.17;;;8.20;91.80;;;;;;5038021;28;20030;-66
2022/02/21 02:27:16;;;;;;;4.07;1.20;;;8.20;91.50;;;;;;5036156;28;20053;-66
2022/02/21 02:29:44;;;;;;;5.70;1.42;;;8.20;91.70;;;;;;5036112;28;20036;-66
2022/02/21 02:32:13;;;;;;;2.90;1.17;;;8.20;91.80;;;;;;5036259;28;20029;-67
2022/02/21 02:34:42;;;;;;;5.75;1.10;;;8.20;91.50;;;;;;5037485;28;20045;-67
2022/02/21 02:37:11;;;;;;;4.40;1.40;;;8.20;91.50;;;;;;5036062;28;20134;-66
2022/02/21 02:39:38;;;;;;;3.72;1.15;;;8.20;91.40;;;;;;5034385;28;20048;-67
2022/02/21 02:42:03;;;;;;;2.40;1.10;;;8.20;91.30;;;;;;5034794;28;20036;-66
2022/02/21 02:44:29;;;;;;;3.22;1.02;;;8.30;91.10;;;;;;5035060;28;20033;-67
2022/02/21 02:46:55;;;;;;;4.32;1.10;;;8.30;91.10;;;;;;5031994;28;20036;-66
2022/02/21 02:49:21;;;;;;;2.63;1.00;;;8.30;91.40;;;;;;5033676;28;20037;-65
2022/02/21 02:51:47;;;;;;;3.90;1.63;;;8.30;91.10;;;;;;5030404;28;20083;-66
2022/02/21 02:54:13;;;;;;;3.92;1.20;;;8.30;91.30;;;;;;5036099;28;20037;-65
2022/02/21 02:56:40;;;;;;;2.28;1.00;;;8.30;90.90;;;;;;5028763;28;20079;-67
2022/02/21 02:59:06;;;;;;;5.40;1.50;;;8.30;91.00;;;;;;5033671;28;20069;-68
2022/02/21 03:01:33;;;;;;;3.03;1.02;;;8.30;91.10;;;;;;5030759;28;20025;-68
2022/02/21 03:04:04;;;;;;;3.60;1.08;;;8.30;91.30;;;;;;5033206;28;20041;-67
2022/02/21 03:06:30;;;;;;;3.55;0.90;;;8.20;91.40;;;;;;5033332;28;20064;-67
2022/02/21 03:08:56;;;;;;;1.75;0.90;;;8.20;91.40;;;;;;5031953;28;20029;-68
2022/02/21 03:11:22;;;;;;;3.08;0.98;;;8.20;91.30;;;;;;5033797;28;20026;-68
2022/02/21 03:13:47;;;;;;;3.45;1.00;;;8.20;91.40;;;;;;5036052;28;20029;-67
2022/02/21 03:16:13;;;;;;;3.28;1.05;;;8.20;91.30;;;;;;5036543;28;20101;-68
2022/02/21 03:18:39;;;;;;;3.60;1.33;;;8.20;91.40;;;;;;5036567;28;20022;-67
2022/02/21 03:21:04;;;;;;;2.83;1.13;;;8.10;91.50;;;;;;5032973;28;20036;-67
2022/02/21 03:23:30;;;;;;;4.32;1.92;;;8.10;91.70;;;;;;5031149;28;20021;-67
2022/02/21 03:25:56;;;;;;;4.10;1.50;;;8.10;91.80;;;;;;5030048;28;20407;-67
2022/02/21 03:28:22;;;;;;;2.53;0.90;;;8.10;91.70;;;;;;5032507;28;20373;-67
2022/02/21 03:30:48;;;;;;;4.28;1.08;;;8.10;91.90;;;;;;5028843;28;20029;-68
2022/02/21 03:33:14;;;;;;;2.72;1.10;;;8.10;92.00;;;;;;5032091;28;20033;-68
2022/02/21 03:35:40;;;;;;;1.92;0.80;;;8.10;92.10;;;;;;5030409;28;20419;-68
2022/02/21 03:38:08;;;;;;;2.28;1.00;;;8.10;92.10;;;;;;5032475;28;20079;-67
2022/02/21 03:40:34;;;;;;;3.03;1.20;;;8.00;92.40;;;;;;5033752;28;20029;-67
2022/02/21 03:43:02;;;;;;;5.05;1.10;;;8.00;92.60;;;;;;5034933;28;20091;-68
2022/02/21 03:45:28;;;;;;;2.20;1.00;;;7.80;94.80;;;;;;5030526;28;20079;-69
2022/02/21 03:47:53;;;;;;;5.53;1.20;;;7.50;95.90;;;;;;5027666;28;20369;-67
2022/02/21 03:50:20;;;;;;;4.03;0.95;;;7.30;96.70;;;;;;5029878;28;20060;-68
2022/02/21 03:52:46;;;;;;;2.75;0.90;;;7.30;97.20;;;;;;5031797;28;20045;-67
2022/02/21 03:55:12;;;;;;;3.03;0.90;;;7.30;96.80;;;;;;5030228;28;21928;-68
2022/02/21 03:57:38;;;;;;;2.03;1.00;;;7.30;96.80;;;;;;5032292;28;20311;-69
2022/02/21 04:00:08;;;;;;;1.52;0.82;;;7.20;97.60;;;;;;5030903;28;20091;-68
2022/02/21 04:02:33;;;;;;;1.98;0.85;;;7.30;97.30;;;;;;5030563;28;20032;-69
2022/02/21 04:05:01;;;;;;;3.80;1.10;;;7.20;97.40;;;;;;5029235;28;20025;-68
2022/02/21 04:07:29;;;;;;;3.35;1.00;;;7.10;97.80;;;;;;5029271;28;20021;-68
2022/02/21 04:09:55;;;;;;;5.25;1.55;;;7.10;97.80;;;;;;5029557;28;20079;-69
2022/02/21 04:12:21;;;;;;;2.78;1.00;;;5.40;96.90;;;;;;5032437;28;20025;-69
2022/02/21 04:14:47;;;;;;;2.85;1.10;;;2.90;97.30;;;;;;5028697;28;20369;-69
2022/02/21 04:17:13;;;;;;;2.85;1.30;;;1.60;94.70;;;;;;5033113;28;20033;-70
2022/02/21 04:19:39;;;;;;;1.92;1.20;;;1.10;92.50;;;;;;5030686;28;20033;-70
2022/02/21 04:22:09;;;;;;;3.60;1.60;;;0.90;90.60;;;;;;5028415;28;20040;-70
2022/02/21 04:24:35;;;;;;;3.58;1.17;;;0.80;90.00;;;;;;5029657;28;20032;-70
2022/02/21 04:27:01;;;;;;;1.80;1.08;;;0.80;89.70;;;;;;5030733;28;20029;-72
2022/02/21 04:29:27;;;;;;;1.80;1.08;;;0.80;88.90;;;;;;5029591;28;20497;-71
2022/02/21 04:31:52;;;;;;;2.30;1.33;;;0.80;89.10;;;;;;5028210;28;20112;-71
2022/02/21 04:34:18;;;;;;;2.00;1.20;;;0.80;88.80;;;;;;5031493;28;20037;-71
2022/02/21 04:36:43;;;;;;;2.75;1.50;;;0.70;88.30;;;;;;5032188;28;20022;-72
2022/02/21 04:39:09;;;;;;;3.35;1.38;;;0.60;88.40;;;;;;5033275;28;20033;-71
2022/02/21 04:41:35;;;;;;;3.70;1.67;;;0.60;88.50;;;;;;5039560;28;20024;-71
2022/02/21 04:44:02;;;;;;;2.15;1.40;;;0.60;87.70;;;;;;5030046;28;20056;-71
2022/02/21 04:46:27;;;;;;;7.43;2.72;;;0.60;87.50;;;;;;5031308;28;20481;-70
2022/02/21 04:48:53;;;;;;;1.80;1.25;;;0.60;86.50;;;;;;5031953;28;20029;-71
2022/02/21 04:51:19;;;;;;;2.67;1.30;;;0.60;86.80;;;;;;5030912;28;20029;-71
2022/02/21 04:53:44;;;;;;;5.65;3.50;;;0.50;86.70;;;;;;5032752;28;20017;-71
2022/02/21 04:56:10;;;;;;;5.80;2.17;;;0.60;86.40;;;;;;5028627;28;20017;-71
2022/02/21 04:58:36;;;;;;;8.57;1.67;;;0.50;86.40;;;;;;5029854;28;20032;-72
2022/02/21 05:01:01;;;;;;;2.67;1.40;;;0.50;86.50;;;;;;5029668;28;20032;-73
2022/02/21 05:03:27;;;;;;;3.90;1.98;;;0.50;86.40;;;;;;5031589;28;20501;-72
2022/02/21 05:05:52;;;;;;;5.63;2.63;;;0.40;86.90;;;;;;5029126;28;20029;-72
2022/02/21 05:08:18;;;;;;;2.97;1.50;;;0.50;86.90;;;;;;5031408;28;20069;-72
2022/02/21 05:10:46;;;;;;;5.43;1.80;;;0.40;87.50;;;;;;5030042;28;20109;-71
2022/02/21 05:13:12;;;;;;;6.70;2.00;;;0.40;87.90;;;;;;5030552;28;20036;-72
2022/02/21 05:15:38;;;;;;;7.20;2.05;;;0.40;87.80;;;;;;5033296;28;20365;-73
2022/02/21 05:18:03;;;;;;;10.50;1.90;;;0.50;88.50;;;;;;5034784;28;20022;-73
2022/02/21 05:20:29;;;;;;;7.93;2.15;;;0.50;89.10;;;;;;5033639;28;20029;-72
2022/02/21 05:22:55;;;;;;;7.05;2.30;;;0.60;92.60;;;;;;5032446;28;20057;-73
2022/02/21 05:25:21;;;;;;;7.32;2.45;;;0.60;92.80;;;;;;5032572;28;20043;-73
2022/02/21 05:27:46;;;;;;;11.70;2.78;;;0.60;93.80;;;;;;5034132;28;20353;-73
2022/02/21 05:30:13;;;;;;;8.13;3.10;;;0.60;94.50;;;;;;5032825;28;20120;-73
2022/02/21 05:32:39;;;;;;;6.57;2.33;;;0.70;95.50;;;;;;5033538;28;20327;-72
2022/02/21 05:35:05;;;;;;;8.65;2.58;;;0.70;96.70;;;;;;5035097;28;20045;-73
2022/02/21 05:37:31;;;;;;;9.02;2.85;;;0.80;98.00;;;;;;5034420;28;20026;-73
2022/02/21 05:39:57;;;;;;;12.70;3.35;;;1.00;98.00;;;;;;5034060;28;20082;-73
2022/02/21 05:42:22;;;;;;;7.78;2.15;;;1.10;98.00;;;;;;5043139;28;20025;-72
2022/02/21 05:44:48;;;;;;;6.38;2.20;;;1.10;98.00;;;;;;5032978;28;20029;-72
2022/02/21 05:47:14;;;;;;;7.53;2.05;;;1.10;98.00;;;;;;5034103;28;20037;-72
2022/02/21 05:49:39;;;;;;;13.43;3.08;;;1.10;98.00;;;;;;5034952;28;20062;-72
2022/02/21 05:52:06;;;;;;;4.35;1.70;;;1.10;98.00;;;;;;5032835;28;20063;-73
2022/02/21 05:54:31;;;;;;;12.60;3.85;;;1.10;98.00;;;;;;5033989;28;20025;-73
2022/02/21 05:56:57;;;;;;;8.63;2.90;;;1.20;98.00;;;;;;5033884;28;20030;-72
2022/02/21 05:59:23;;;;;;;4.88;1.92;;;1.20;98.00;;;;;;5031194;28;20411;-72
2022/02/21 06:01:49;;;;;;;8.93;2.50;;;1.10;98.00;;;;;;5032988;28;20041;-72
2022/02/21 06:04:15;;;;;;;6.75;3.15;;;1.10;98.00;;;;;;5033015;28;20033;-72
2022/02/21 06:06:40;;;;;;;9.73;2.00;;;1.10;98.00;;;;;;5034347;28;20034;-73
2022/02/21 06:09:06;;;;;;;7.18;2.00;;;1.10;98.00;;;;;;5033076;28;20030;-71
2022/02/21 06:11:32;;;;;;;9.13;2.00;;;1.10;97.90;;;;;;5032811;28;21510;-73
2022/02/21 06:13:58;;;;;;;6.85;2.03;;;1.10;98.00;;;;;;5032312;28;20084;-72
2022/02/21 06:16:24;;;;;;;10.85;2.45;;;1.10;97.80;;;;;;5030527;28;20029;-73
2022/02/21 06:18:50;;;;;;;10.85;2.70;;;1.10;97.60;;;;;;5032693;28;20026;-73
2022/02/21 06:21:16;;;;;;;11.85;2.80;;;1.10;98.00;;;;;;5031419;28;20304;-72
2022/02/21 06:23:42;;;;;;;8.07;2.20;;;1.10;97.40;;;;;;5031787;28;20036;-71
2022/02/21 06:26:07;;;;;;;9.10;2.20;;;1.10;97.80;;;;;;5029344;28;20022;-72
2022/02/21 06:28:33;;;;;;;13.57;3.30;;;1.10;97.70;;;;;;5026874;28;20023;-71
2022/02/21 06:30:59;;;;;;;7.90;2.65;;;1.10;97.60;;;;;;5031089;28;20050;-70
2022/02/21 06:33:26;;;;;;;11.23;3.17;;;1.10;97.80;;;;;;5026574;28;20037;-72
2022/02/21 06:35:52;;;;;;;10.02;3.08;;;1.10;97.80;;;;;;5017888;28;20029;-71
2022/02/21 06:38:18;;;;;;;19.15;6.13;;;1.10;97.40;;;;;;5021582;28;20068;-72
2022/02/21 06:40:44;;;;;;;11.70;3.95;;;1.10;97.50;;;;;;5025961;28;20103;-73
2022/02/21 06:43:10;;;;;;;18.33;4.57;;;1.10;97.60;;;;;;5032783;28;20033;-73
2022/02/21 06:45:36;;;;;;;15.05;5.38;;;1.10;97.30;;;;;;5037310;28;20109;-72
2022/02/21 06:48:03;;;;;;;13.02;3.78;;;1.10;96.80;;;;;;5028817;28;20037;-72
2022/02/21 06:50:29;;;;;;;10.85;3.25;;;1.10;97.40;;;;;;5036226;28;20029;-72
2022/02/21 06:52:55;;;;;;;12.45;3.28;;;1.10;97.30;;;;;;5037163;28;20056;-72
2022/02/21 06:55:21;;;;;;;11.85;3.60;;;1.20;97.20;;;;;;5036533;28;20031;-72
2022/02/21 06:57:48;;;;;;;10.73;4.15;;;1.20;96.70;;;;;;5038051;28;20032;-72
2022/02/21 07:00:15;;;;;;;8.30;3.72;;;1.20;96.70;;;;;;5036744;28;20031;-72
2022/02/21 07:02:42;;;;;;;7.93;3.60;;;1.20;96.50;;;;;;5019298;28;20030;-72
2022/02/21 07:05:09;;;;;;;8.55;3.05;;;1.20;96.80;;;;;;5018220;28;20018;-73
2022/02/21 07:07:35;;;;;;;12.43;3.60;;;1.20;96.90;;;;;;5018035;28;20030;-72
2022/02/21 07:10:04;;;;;;;7.18;2.50;;;1.20;97.00;;;;;;5017860;28;20026;-72
2022/02/21 07:12:30;;;;;;;12.50;4.45;;;1.30;97.50;;;;;;5029986;28;20030;-72
2022/02/21 07:14:56;;;;;;;8.70;4.43;;;1.30;96.80;;;;;;5036384;28;20431;-72
2022/02/21 07:17:21;;;;;;;7.90;2.83;;;1.30;96.60;;;;;;5037799;28;20026;-72
2022/02/21 07:19:49;;;;;;;13.68;3.63;;;1.30;98.00;;;;;;5037549;28;20040;-72
2022/02/21 07:22:15;;;;;;;16.20;4.90;;;1.30;98.00;;;;;;5037625;28;20037;-72
2022/02/21 07:24:41;;;;;;;14.13;5.57;;;1.30;97.20;;;;;;5037466;28;20029;-72
2022/02/21 07:27:06;;;;;;;14.55;5.22;;;1.30;97.30;;;;;;5037171;28;20422;-72
2022/02/21 07:29:33;;;;;;;16.40;5.63;;;1.40;97.40;;;;;;5036274;28;20026;-73
2022/02/21 07:31:59;;;;;;;10.65;3.13;;;1.40;98.00;;;;;;5036157;28;20032;-71
2022/02/21 07:34:25;;;;;;;16.38;5.13;;;1.40;98.00;;;;;;5037245;28;20042;-71
2022/02/21 07:36:50;;;;;;;13.85;3.60;;;1.40;98.00;;;;;;5036536;28;20028;-71
2022/02/21 07:39:17;;;;;;;11.85;3.70;;;1.40;98.00;;;;;;5037106;28;20028;-71
2022/02/21 07:41:43;;;;;;;12.68;4.03;;;1.40;98.00;;;;;;5036845;28;20032;-71
2022/02/21 07:44:11;;;;;;;10.45;3.17;;;1.40;98.00;;;;;;5036116;28;20026;-72
2022/02/21 07:46:37;;;;;;;13.48;3.25;;;1.50;98.00;;;;;;5037313;28;20061;-72
2022/02/21 07:49:03;;;;;;;14.82;5.78;;;1.50;98.00;;;;;;5036794;28;20053;-71
2022/02/21 07:51:28;;;;;;;14.30;4.82;;;1.50;98.00;;;;;;5034690;28;20446;-71
2022/02/21 07:53:57;;;;;;;12.65;3.03;;;1.50;98.00;;;;;;5035354;28;20056;-71
2022/02/21 07:56:23;;;;;;;14.05;4.47;;;1.50;98.00;;;;;;5035825;28;20109;-71
2022/02/21 07:58:48;;;;;;;17.85;5.07;;;1.50;98.00;;;;;;5031950;28;20113;-71
2022/02/21 08:01:14;;;;;;;11.82;3.95;;;1.60;98.00;;;;;;5036518;28;20108;-72
2022/02/21 08:03:40;;;;;;;14.40;3.50;;;1.60;98.00;;;;;;5036868;28;20079;-71
2022/02/21 08:06:12;;;;;;;15.57;5.78;;;1.60;98.00;;;;;;5036254;28;20044;-71
2022/02/21 08:08:39;;;;;;;12.90;3.45;;;1.60;98.00;;;;;;5035735;28;20038;-71
2022/02/21 08:11:05;;;;;;;18.27;4.47;;;1.60;98.00;;;;;;5035824;28;20029;-72
2022/02/21 08:13:31;;;;;;;10.70;3.33;;;1.60;98.00;;;;;;5035359;28;20661;-70
2022/02/21 08:15:57;;;;;;;16.13;3.47;;;1.70;98.00;;;;;;5036261;28;20025;-70
2022/02/21 08:18:22;;;;;;;15.23;3.55;;;1.70;98.00;;;;;;5036751;28;20025;-70
2022/02/21 08:20:48;;;;;;;17.15;3.20;;;1.70;98.00;;;;;;5036313;28;20025;-71
2022/02/21 08:23:14;;;;;;;19.20;3.42;;;1.70;98.00;;;;;;5036427;28;20018;-71
2022/02/21 08:25:40;;;;;;;17.85;4.22;;;1.70;98.00;;;;;;5036420;28;20021;-71
2022/02/21 08:28:06;;;;;;;14.02;2.83;;;1.70;98.00;;;;;;5036353;28;20037;-71
2022/02/21 08:30:32;;;;;;;14.70;3.70;;;1.80;98.00;;;;;;5035269;28;20127;-71
2022/02/21 08:32:57;;;;;;;14.05;3.20;;;2.10;98.00;;;;;;5036219;28;20427;-71
2022/02/21 08:35:23;;;;;;;17.75;3.65;;;2.30;98.00;;;;;;5036192;28;20056;-71
2022/02/21 08:37:49;;;;;;;19.08;3.25;;;2.70;98.00;;;;;;5036288;28;20021;-70
2022/02/21 08:40:17;;;;;;;16.75;3.22;;;2.70;98.00;;;;;;5036218;28;20387;-70
2022/02/21 08:42:44;;;;;;;11.95;3.25;;;2.40;98.00;;;;;;5035712;28;20036;-70
2022/02/21 08:45:10;;;;;;;13.10;3.13;;;2.40;98.00;;;;;;5033684;28;20033;-71
2022/02/21 08:47:37;;;;;;;20.95;4.80;;;2.60;98.00;;;;;;5036013;28;20017;-72
2022/02/21 08:50:04;;;;;;;18.38;3.45;;;2.60;98.00;;;;;;5036045;28;20026;-72
2022/02/21 08:52:30;;;;;;;23.10;4.63;;;2.60;98.00;;;;;;5034899;28;20382;-72
2022/02/21 08:54:56;;;;;;;18.52;3.85;;;2.60;97.80;;;;;;5036109;28;20121;-72
2022/02/21 08:57:22;;;;;;;13.63;2.90;;;2.60;98.00;;;;;;5035869;28;20100;-72
2022/02/21 08:59:49;;;;;;;15.10;3.55;;;2.60;97.90;;;;;;5034700;28;20096;-72
2022/02/21 09:02:16;;;;;;;14.05;4.45;;;2.70;98.00;;;;;;5035973;28;20029;-73
2022/02/21 09:04:45;;;;;;;15.85;4.53;;;2.80;97.70;;;;;;5035374;28;20113;-73
2022/02/21 09:07:11;;;;;;;24.58;4.05;;;2.80;97.60;;;;;;5035818;28;20426;-72
2022/02/21 09:09:36;;;;;;;24.52;4.05;;;2.80;97.60;;;;;;5035479;28;20034;-73
2022/02/21 09:12:03;;;;;;;14.00;3.38;;;2.80;97.80;;;;;;5034330;28;20474;-73
2022/02/21 09:14:29;;;;;;;17.90;3.13;;;2.80;97.40;;;;;;5033326;28;20029;-72
2022/02/21 09:16:55;;;;;;;18.17;3.60;;;2.80;97.20;;;;;;5032147;28;20030;-75
2022/02/21 09:19:20;;;;;;;27.15;4.32;;;2.70;97.30;;;;;;5031682;28;20021;-72
2022/02/21 09:21:46;;;;;;;17.83;3.63;;;2.80;97.30;;;;;;5028180;28;20091;-71
2022/02/21 09:24:12;;;;;;;14.82;3.00;;;2.80;97.00;;;;;;5030260;28;20346;-72
2022/02/21 09:26:38;;;;;;;17.70;3.20;;;2.80;96.70;;;;;;5031754;28;20049;-71
2022/02/21 09:29:04;;;;;;;18.00;3.08;;;2.90;96.80;;;;;;5030568;28;20034;-71
2022/02/21 09:31:29;;;;;;;19.80;3.88;;;2.90;96.50;;;;;;5033169;28;20338;-71
2022/02/21 09:33:55;;;;;;;17.50;3.85;;;2.80;96.90;;;;;;5033994;28;20033;-71
2022/02/21 09:36:21;;;;;;;16.95;4.43;;;2.80;96.70;;;;;;5033465;28;20030;-70
2022/02/21 09:38:47;;;;;;;17.58;3.50;;;2.80;96.40;;;;;;5031505;28;20018;-70
2022/02/21 09:41:13;;;;;;;18.52;4.22;;;3.00;96.00;;;;;;5033827;28;20026;-70
2022/02/21 09:43:38;;;;;;;12.35;3.13;;;3.00;95.60;;;;;;5032682;28;20430;-70
2022/02/21 09:46:07;;;;;;;17.35;3.55;;;3.10;95.30;;;;;;5033822;28;20101;-69
2022/02/21 09:48:36;;;;;;;13.00;3.30;;;3.10;96.00;;;;;;5032068;28;20426;-70
2022/02/21 09:51:03;;;;;;;19.17;2.95;;;3.20;95.80;;;;;;5033961;28;20034;-69
2022/02/21 09:53:30;;;;;;;16.75;3.50;;;3.40;94.20;;;;;;5034229;28;20037;-69
2022/02/21 09:55:59;;;;;;;19.73;3.25;;;3.40;94.00;;;;;;5035277;28;20060;-69
2022/02/21 09:58:26;;;;;;;20.77;4.43;;;3.60;93.90;;;;;;5033671;28;20144;-70
2022/02/21 10:00:53;;;;;;;18.02;3.25;;;3.70;93.10;;;;;;5038100;28;20025;-70
2022/02/21 10:03:45;;;;;;;17.77;3.70;;;3.60;94.00;;;;;;5038372;28;20060;-69
2022/02/21 10:06:25;;;;;;;21.42;3.95;;;3.60;94.30;;;;;;5018121;28;20033;-69
2022/02/21 10:08:55;;;;;;;14.10;3.15;;;3.80;94.50;;;;;;5036406;28;20021;-70
2022/02/21 10:11:28;;;;;;;15.82;3.35;;;3.70;93.60;;;;;;5038301;28;20033;-69
2022/02/21 10:13:55;;;;;;;14.40;3.58;;;3.70;94.40;;;;;;5035246;28;20022;-70
2022/02/21 10:16:21;;;;;;;12.00;3.03;;;3.80;93.90;;;;;;5038609;28;20025;-69
2022/02/21 10:18:47;;;;;;;20.08;2.67;;;3.90;93.40;;;;;;5038478;28;20326;-69
2022/02/21 10:21:13;;;;;;;9.48;2.75;;;4.10;93.90;;;;;;5037435;28;20030;-69
2022/02/21 10:23:43;;;;;;;20.65;5.03;;;4.10;92.90;;;;;;5036974;28;20382;-69
2022/02/21 10:26:09;;;;;;;24.05;5.78;;;4.20;93.60;;;;;;5038644;28;20429;-69
2022/02/21 10:28:38;;;;;;;14.60;5.80;;;4.50;92.90;;;;;;5037164;28;20044;-69
2022/02/21 10:31:23;;;;;;;14.50;3.33;;;5.10;91.80;;;;;;5037980;28;20439;-69
2022/02/21 10:34:00;;;;;;;15.30;4.43;;;5.20;88.50;;;;;;5033439;28;20358;-69
2022/02/21 10:36:39;;;;;;;12.32;3.63;;;5.10;88.50;;;;;;5037899;28;20043;-69
2022/02/21 10:39:11;;;;;;;16.95;4.53;;;5.00;89.20;;;;;;5037619;28;20033;-69
2022/02/21 10:41:41;;;;;;;19.13;4.72;;;5.10;89.20;;;;;;5038483;28;20055;-69
2022/02/21 10:44:24;;;;;;;15.43;3.38;;;4.80;89.40;;;;;;5036973;28;20430;-69
2022/02/21 10:47:12;;;;;;;12.80;3.73;;;4.60;90.10;;;;;;5035308;28;20468;-69
2022/02/21 10:49:43;;;;;;;11.93;3.83;;;4.10;90.60;;;;;;5037153;28;20441;-69
2022/02/21 10:52:16;;;;;;;12.55;3.13;;;3.50;94.70;;;;;;5037283;28;20061;-69
2022/02/21 10:54:41;;;;;;;16.08;4.03;;;3.10;95.70;;;;;;5038206;28;20025;-69
2022/02/21 10:57:15;;;;;;;21.90;5.82;;;3.00;97.20;;;;;;5038195;28;20441;-69
2022/02/21 10:59:41;;;;;;;20.75;4.38;;;3.10;98.00;;;;;;5036894;28;20039;-69
2022/02/21 11:02:07;;;;;;;14.75;3.92;;;3.10;97.50;;;;;;5038053;28;20384;-68
2022/02/21 11:04:36;;;;;;;18.17;5.00;;;3.10;98.00;;;;;;5038148;28;20033;-69
2022/02/21 11:07:02;;;;;;;13.82;3.53;;;2.70;98.00;;;;;;5037660;28;20056;-69
2022/02/21 11:09:29;;;;;;;15.80;3.33;;;2.40;98.00;;;;;;5037052;28;20453;-70
2022/02/21 11:12:00;;;;;;;19.90;6.05;;;2.30;98.00;;;;;;5036703;28;20116;-69
2022/02/21 11:14:30;;;;;;;17.40;3.75;;;2.30;98.00;;;;;;5035844;28;20021;-69
2022/02/21 11:16:58;;;;;;;15.10;3.80;;;2.50;98.00;;;;;;5037674;28;20105;-68
2022/02/21 11:19:24;;;;;;;18.73;5.20;;;2.70;98.00;;;;;;5037748;28;20072;-68
2022/02/21 11:21:53;;;;;;;18.67;4.57;;;3.00;97.80;;;;;;5037349;28;20025;-68
2022/02/21 11:24:22;;;;;;;16.67;4.18;;;3.00;98.00;;;;;;5037738;28;20366;-68
2022/02/21 11:27:06;;;;;;;11.40;2.92;;;3.20;93.30;;;;;;5037602;28;20050;-68
2022/02/21 11:29:55;;;;;;;13.88;3.00;;;3.40;91.90;;;;;;5035233;28;20029;-68
2022/02/21 11:32:22;;;;;;;17.00;5.30;;;3.50;91.70;;;;;;5037302;28;20025;-67
2022/02/21 11:35:12;;;;;;;16.60;6.32;;;3.50;92.40;;;;;;5037251;28;20068;-68
2022/02/21 11:37:38;;;;;;;16.17;3.40;;;3.70;91.40;;;;;;5037453;28;20076;-68
2022/02/21 11:40:05;;;;;;;13.02;3.60;;;4.60;88.30;;;;;;5037354;28;20292;-68
2022/02/21 11:42:38;;;;;;;10.68;3.50;;;4.60;88.00;;;;;;5037400;28;20029;-69
2022/02/21 11:45:21;;;;;;;12.25;3.42;;;4.40;88.00;;;;;;5036048;28;20136;-69
2022/02/21 11:47:53;;;;;;;11.40;2.88;;;4.30;88.90;;;;;;5037077;28;20025;-69
2022/02/21 11:50:25;;;;;;;11.63;3.30;;;4.90;87.90;;;;;;5036885;28;20035;-69
2022/02/21 11:52:57;;;;;;;11.18;2.30;;;5.50;86.20;;;;;;5036084;28;20381;-69
2022/02/21 11:55:29;;;;;;;11.02;2.45;;;5.80;82.90;;;;;;5037123;28;20418;-69
2022/02/21 11:58:13;;;;;;;11.50;2.47;;;5.20;84.40;;;;;;5036355;28;20022;-68
2022/02/21 12:00:41;;;;;;;8.38;2.60;;;4.90;85.00;;;;;;5035855;28;20026;-68
2022/02/21 12:03:15;;;;;;;13.88;3.35;;;4.80;86.00;;;;;;5035550;28;20037;-68
2022/02/21 12:05:48;;;;;;;13.27;3.25;;;4.90;86.20;;;;;;5036858;28;20040;-68
2022/02/21 12:08:38;;;;;;;15.63;3.03;;;4.90;86.80;;;;;;5036592;28;20104;-68
2022/02/21 12:11:17;;;;;;;12.02;2.92;;;4.90;87.60;;;;;;5032796;28;20041;-68
2022/02/21 12:14:08;;;;;;;17.17;2.83;;;4.50;88.30;;;;;;5015530;28;20061;-68
2022/02/21 12:16:57;;;;;;;10.35;2.10;;;4.10;93.40;;;;;;5014741;28;20033;-68
2022/02/21 12:19:27;;;;;;;12.93;3.42;;;4.80;95.50;;;;;;5036321;28;20025;-68
2022/02/21 12:22:18;;;;;;;12.77;2.75;;;5.20;94.50;;;;;;5036066;28;20432;-67
2022/02/21 12:25:07;;;;;;;7.20;2.38;;;5.10;92.20;;;;;;5035423;28;20042;-68
2022/02/21 12:27:32;;;;;;;11.43;2.33;;;5.10;93.20;;;;;;5036058;28;20351;-68
2022/02/21 12:29:58;;;;;;;11.52;3.03;;;5.80;89.80;;;;;;5035118;28;20032;-68
2022/02/21 12:32:27;;;;;;;13.57;3.17;;;6.30;90.50;;;;;;5036014;28;20112;-68
2022/02/21 12:34:53;;;;;;;16.40;2.75;;;6.70;86.40;;;;;;5036229;28;20037;-68
2022/02/21 12:37:19;;;;;;;11.57;3.20;;;7.10;86.90;;;;;;5036001;28;20300;-68
2022/02/21 12:39:48;;;;;;;8.93;2.17;;;7.60;83.90;;;;;;5036203;28;20030;-67
2022/02/21 12:42:20;;;;;;;9.50;2.40;;;7.30;83.20;;;;;;5036073;28;20029;-68
2022/02/21 12:44:50;;;;;;;9.82;2.20;;;6.90;82.70;;;;;;5035109;28;20108;-67
2022/02/21 12:47:15;;;;;;;7.93;2.28;;;6.20;84.30;;;;;;5035061;28;20029;-67
2022/02/21 12:49:49;;;;;;;9.25;2.22;;;5.90;83.70;;;;;;5036013;28;20482;-67
2022/02/21 12:52:16;;;;;;;8.48;3.22;;;5.60;84.00;;;;;;5035112;28;20041;-67
2022/02/21 12:54:56;;;;;;;14.55;2.67;;;5.20;84.60;;;;;;5032487;28;20076;-67